createdAt,value
2022-08-11T00:01:23.298Z,101809.03
2022-08-11T00:04:16.526Z,101811.50
2022-08-11T00:06:46.528Z,101808.34
2022-08-11T00:09:18.488Z,101805.28
2022-08-11T00:11:54.016Z,101805.44
2022-08-11T00:14:36.904Z,101797.88
2022-08-11T00:17:08.438Z,101799.91
2022-08-11T00:20:14.427Z,101804.09
2022-08-11T00:22:27.326Z,101802.19
2022-08-11T00:24:58.600Z,101797.47
2022-08-11T00:27:35.266Z,101808.41
2022-08-11T00:30:03.111Z,101807.88
2022-08-11T00:32:30.628Z,101806.41
2022-08-11T00:35:51.125Z,101807.00
2022-08-11T00:37:49.820Z,101802.84
2022-08-11T00:40:37.843Z,101803.56
2022-08-11T00:43:22.354Z,101808.63
2022-08-11T00:46:08.795Z,101815.75
2022-08-11T00:49:11.959Z,101806.25
2022-08-11T00:52:04.013Z,101813.47
2022-08-11T00:54:50.355Z,101810.75
2022-08-11T00:57:51.992Z,101808.16
2022-08-11T01:00:23.919Z,101806.03
2022-08-11T01:03:24.527Z,101811.00
2022-08-11T01:06:14.083Z,101811.22
2022-08-11T01:09:01.968Z,101809.75
2022-08-11T01:11:56.608Z,101808.84
2022-08-11T01:14:34.374Z,101811.44
2022-08-11T01:17:46.133Z,101802.41
2022-08-11T01:20:46.967Z,101813.41
2022-08-11T01:23:41.542Z,101809.91
2022-08-11T01:26:38.945Z,101809.31
2022-08-11T01:29:27.326Z,101810.56
2022-08-11T01:32:18.699Z,101812.25
2022-08-11T01:35:03.863Z,101802.66
2022-08-11T01:38:05.754Z,101804.91
2022-08-11T01:41:02.942Z,101801.72
2022-08-11T01:44:12.724Z,101808.25
2022-08-11T01:47:07.628Z,101803.38
2022-08-11T01:50:08.057Z,101801.44
2022-08-11T01:52:49.194Z,101801.97
2022-08-11T01:55:29.363Z,101803.31
2022-08-11T01:58:22.962Z,101809.38
2022-08-11T02:01:28.758Z,101812.38
2022-08-11T02:04:18.724Z,101814.50
2022-08-11T02:06:57.418Z,101820.13
2022-08-11T02:09:49.799Z,101820.25
2022-08-11T02:12:52.127Z,101811.56
2022-08-11T02:15:34.519Z,101822.84
2022-08-11T02:18:52.793Z,101813.28
2022-08-11T02:21:57.141Z,101815.03
2022-08-11T02:24:51.854Z,101816.72
2022-08-11T02:27:25.720Z,101808.03
2022-08-11T02:30:10.230Z,101818.03
2022-08-11T02:33:01.611Z,101812.94
2022-08-11T02:35:42.870Z,101815.41
2022-08-11T02:38:33.937Z,101821.09
2022-08-11T02:41:39.786Z,101813.09
2022-08-11T02:44:28.320Z,101812.41
2022-08-11T02:47:31.058Z,101810.41
2022-08-11T02:50:21.275Z,101812.41
2022-08-11T02:53:02.144Z,101812.50
2022-08-11T02:55:58.345Z,101806.09
2022-08-11T02:58:36.756Z,101805.72
2022-08-11T03:01:12.736Z,101807.41
2022-08-11T03:03:51.376Z,101809.50
2022-08-11T03:06:30.141Z,101811.63
2022-08-11T03:09:06.592Z,101810.50
2022-08-11T03:11:57.707Z,101814.63
2022-08-11T03:15:11.166Z,101814.78
2022-08-11T03:18:03.021Z,101816.09
2022-08-11T03:20:43.819Z,101815.38
2022-08-11T03:23:19.757Z,101805.47
2022-08-11T03:26:01.695Z,101811.88
2022-08-11T03:28:51.688Z,101804.75
2022-08-11T03:31:33.279Z,101810.38
2022-08-11T03:34:39.007Z,101813.59
2022-08-11T03:37:34.361Z,101807.59
2022-08-11T03:40:03.624Z,101814.09
2022-08-11T03:42:42.151Z,101809.44
2022-08-11T03:45:17.761Z,101804.75
2022-08-11T03:48:05.698Z,101805.28
2022-08-11T03:50:55.328Z,101808.50
2022-08-11T03:53:50.075Z,101812.13
2022-08-11T03:56:51.685Z,101805.28
2022-08-11T03:59:21.015Z,101807.72
2022-08-11T04:02:14.877Z,101808.25
2022-08-11T04:05:07.252Z,101807.53
2022-08-11T04:08:01.468Z,101814.78
2022-08-11T04:11:05.634Z,101815.25
2022-08-11T04:14:27.957Z,101812.94
2022-08-11T04:17:25.019Z,101811.41
2022-08-11T04:19:56.913Z,101808.28
2022-08-11T04:23:03.481Z,101804.28
2022-08-11T04:25:30.917Z,101805.09
2022-08-11T04:28:29.236Z,101802.00
2022-08-11T04:31:05.928Z,101803.66
2022-08-11T04:33:36.515Z,101802.44
2022-08-11T04:36:15.070Z,101799.63
2022-08-11T04:39:08.157Z,101801.56
2022-08-11T04:42:15.471Z,101811.50
2022-08-11T04:45:11.920Z,101796.19
2022-08-11T04:48:40.863Z,101800.91
2022-08-11T04:51:57.649Z,101806.44
2022-08-11T04:54:58.155Z,101804.00
2022-08-11T04:58:09.784Z,101807.59
2022-08-11T05:01:12.381Z,101807.53
2022-08-11T05:03:51.211Z,101809.91
2022-08-11T05:06:20.620Z,101813.00
2022-08-11T05:09:23.578Z,101812.56
2022-08-11T05:12:06.318Z,101819.25
2022-08-11T05:14:57.517Z,101821.16
2022-08-11T05:17:53.116Z,101817.44
2022-08-11T05:20:41.828Z,101816.03
2022-08-11T05:23:28.732Z,101815.56
2022-08-11T05:26:47.178Z,101825.75
2022-08-11T05:29:42.815Z,101824.34
2022-08-11T05:32:31.664Z,101821.38
2022-08-11T05:35:03.605Z,101826.47
2022-08-11T05:37:29.973Z,101829.91
2022-08-11T05:40:24.243Z,101830.16
2022-08-11T05:43:18.632Z,101831.59
2022-08-11T05:46:15.652Z,101830.53
2022-08-11T05:49:01.536Z,101838.41
2022-08-11T05:52:05.768Z,101831.03
2022-08-11T05:54:59.841Z,101834.50
2022-08-11T05:57:48.782Z,101828.69
2022-08-11T06:00:19.117Z,101830.88
2022-08-11T06:02:51.992Z,101827.50
2022-08-11T06:05:21.065Z,101825.72
2022-08-11T06:07:50.165Z,101828.34
2022-08-11T06:10:35.396Z,101825.44
2022-08-11T06:13:07.373Z,101829.63
2022-08-11T06:15:43.526Z,101832.34
2022-08-11T06:18:12.488Z,101829.31
2022-08-11T06:20:50.154Z,101833.63
2022-08-11T06:23:23.638Z,101829.03
2022-08-11T06:25:56.484Z,101833.66
2022-08-11T06:28:35.699Z,101829.44
2022-08-11T06:31:11.554Z,101822.03
2022-08-11T06:33:55.322Z,101825.84
2022-08-11T06:36:35.698Z,101827.22
2022-08-11T06:39:18.576Z,101835.00
2022-08-11T06:42:02.658Z,101831.53
2022-08-11T06:44:58.689Z,101834.78
2022-08-11T06:47:25.494Z,101830.84
2022-08-11T06:50:13.879Z,101836.94
2022-08-11T06:52:42.269Z,101822.19
2022-08-11T06:55:55.747Z,101829.84
2022-08-11T06:58:17.094Z,101831.53
2022-08-11T07:00:47.733Z,101827.22
2022-08-11T07:03:19.624Z,101831.25
2022-08-11T07:08:50.283Z,101830.50
2022-08-11T07:11:41.342Z,101835.81
2022-08-11T07:14:27.716Z,101827.84
2022-08-11T07:16:55.724Z,101820.44
2022-08-11T07:19:44.507Z,101823.34
2022-08-11T07:22:30.506Z,101829.69
2022-08-11T07:25:25.334Z,101826.81
2022-08-11T07:28:20.642Z,101826.09
2022-08-11T07:30:54.453Z,101823.03
2022-08-11T07:34:08.138Z,101816.81
2022-08-11T07:36:17.407Z,101819.09
2022-08-11T07:38:50.792Z,101821.47
2022-08-11T07:41:20.450Z,101821.69
2022-08-11T07:43:52.543Z,101825.34
2022-08-11T07:46:38.292Z,101815.44
2022-08-11T07:49:26.266Z,101819.41
2022-08-11T07:52:12.583Z,101811.56
2022-08-11T07:54:41.559Z,101823.19
2022-08-11T07:58:14.168Z,101820.84
2022-08-11T08:00:34.314Z,101813.00
2022-08-11T08:03:22.473Z,101810.97
2022-08-11T08:06:28.427Z,101809.22
2022-08-11T08:09:15.123Z,101816.44
2022-08-11T08:12:02.301Z,101815.97
2022-08-11T08:14:47.992Z,101810.88
2022-08-11T08:17:33.262Z,101813.22
2022-08-11T08:20:00.581Z,101813.38
2022-08-11T08:22:48.326Z,101811.91
2022-08-11T08:25:15.237Z,101810.91
2022-08-11T08:27:43.552Z,101807.06
2022-08-11T08:30:32.825Z,101814.25
2022-08-11T08:33:01.063Z,101814.84
2022-08-11T08:35:32.936Z,101811.78
2022-08-11T08:38:00.783Z,101818.50
2022-08-11T08:40:27.620Z,101818.44
2022-08-11T08:42:58.395Z,101819.63
2022-08-11T08:45:28.215Z,101826.16
2022-08-11T08:48:04.842Z,101819.66
2022-08-11T08:50:55.601Z,101822.50
2022-08-11T08:53:29.596Z,101824.09
2022-08-11T08:55:58.320Z,101821.94
2022-08-11T08:58:26.119Z,101822.94
2022-08-11T09:00:56.622Z,101818.75
2022-08-11T09:03:40.926Z,101820.72
2022-08-11T09:06:10.774Z,101818.22
2022-08-11T09:08:37.755Z,101819.59
2022-08-11T09:11:24.089Z,101815.66
2022-08-11T09:14:05.044Z,101812.00
2022-08-11T09:16:33.786Z,101811.38
2022-08-11T09:19:00.976Z,101812.81
2022-08-11T09:21:49.306Z,101804.41
2022-08-11T09:24:32.939Z,101805.56
2022-08-11T09:27:07.661Z,101810.03
2022-08-11T09:29:35.774Z,101801.56
2022-08-11T09:32:02.837Z,101808.28
2022-08-11T09:34:29.898Z,101799.66
2022-08-11T09:37:28.739Z,101798.03
2022-08-11T09:40:27.407Z,101805.72
2022-08-11T09:43:18.383Z,101800.72
2022-08-11T09:45:51.321Z,101797.53
2022-08-11T09:48:23.737Z,101795.94
2022-08-11T09:50:52.939Z,101796.03
2022-08-11T09:53:36.792Z,101786.28
2022-08-11T09:56:40.519Z,101783.44
2022-08-11T09:59:08.181Z,101782.44
2022-08-11T10:01:42.309Z,101775.28
2022-08-11T10:04:20.683Z,101784.25
2022-08-11T10:07:05.424Z,101779.69
2022-08-11T10:09:46.614Z,101784.94
2022-08-11T10:12:26.849Z,101783.41
2022-08-11T10:15:15.853Z,101775.44
2022-08-11T10:18:06.893Z,101773.91
2022-08-11T10:20:36.920Z,101774.13
2022-08-11T10:23:22.913Z,101766.84
2022-08-11T10:26:09.561Z,101759.31
2022-08-11T10:28:55.848Z,101758.03
2022-08-11T10:31:57.717Z,101749.97
2022-08-11T10:34:29.956Z,101747.41
2022-08-11T10:37:02.959Z,101755.97
2022-08-11T10:39:29.823Z,101752.84
2022-08-11T10:42:30.065Z,101762.44
2022-08-11T10:45:27.040Z,101750.75
2022-08-11T10:47:55.977Z,101744.50
2022-08-11T10:50:42.696Z,101750.19
2022-08-11T10:53:28.785Z,101742.91
2022-08-11T10:56:15.165Z,101739.03
2022-08-11T10:58:49.196Z,101743.66
2022-08-11T11:01:24.332Z,101739.44
2022-08-11T11:03:54.645Z,101736.53
2022-08-11T11:06:52.053Z,101728.22
2022-08-11T11:09:32.531Z,101728.91
2022-08-11T11:12:25.774Z,101727.84
2022-08-11T11:15:16.151Z,101721.03
2022-08-11T11:17:56.858Z,101717.81
2022-08-11T11:20:36.957Z,101721.41
2022-08-11T11:23:20.055Z,101707.78
2022-08-11T11:26:16.795Z,101718.41
2022-08-11T11:29:25.151Z,101706.25
2022-08-11T11:31:59.158Z,101701.03
2022-08-11T11:34:48.017Z,101701.25
2022-08-11T11:37:22.787Z,101692.19
2022-08-11T11:39:50.153Z,101696.16
2022-08-11T11:42:18.361Z,101690.06
2022-08-11T11:44:46.982Z,101698.88
2022-08-11T11:47:15.443Z,101684.84
2022-08-11T11:49:44.268Z,101685.38
2022-08-11T11:52:19.718Z,101675.81
2022-08-11T11:54:50.534Z,101675.03
2022-08-11T11:57:37.489Z,101666.59
2022-08-11T12:00:25.345Z,101666.19
2022-08-11T12:03:03.169Z,101658.53
2022-08-11T12:05:33.575Z,101667.00
2022-08-11T12:08:17.892Z,101657.59
2022-08-11T12:11:12.766Z,101665.06
2022-08-11T12:13:45.120Z,101658.91
2022-08-11T12:16:34.294Z,101654.00
2022-08-11T12:19:01.974Z,101648.38
2022-08-11T12:21:33.192Z,101644.50
2022-08-11T12:24:20.936Z,101645.13
2022-08-11T12:27:15.128Z,101650.09
2022-08-11T12:29:36.465Z,101638.38
2022-08-11T12:32:11.634Z,101642.88
2022-08-11T12:34:43.604Z,101635.28
2022-08-11T12:37:13.747Z,101628.38
2022-08-11T12:40:15.601Z,101634.53
2022-08-11T12:43:37.363Z,101622.47
2022-08-11T12:46:34.600Z,101621.59
2022-08-11T12:49:36.746Z,101616.50
2022-08-11T12:52:13.376Z,101623.66
2022-08-11T12:55:02.733Z,101612.09
2022-08-11T12:57:50.266Z,101613.69
2022-08-11T13:00:37.468Z,101604.25
2022-08-11T13:03:25.800Z,101599.06
2022-08-11T13:05:55.453Z,101596.00
2022-08-11T13:08:27.818Z,101593.66
2022-08-11T13:11:16.729Z,101586.78
2022-08-11T13:13:55.458Z,101584.22
2022-08-11T13:16:28.004Z,101572.66
2022-08-11T13:18:56.259Z,101581.41
2022-08-11T13:21:26.319Z,101576.72
2022-08-11T13:23:59.762Z,101571.78
2022-08-11T13:26:47.487Z,101574.50
2022-08-11T13:29:26.365Z,101574.84
2022-08-11T13:32:00.798Z,101579.44
2022-08-11T13:34:31.218Z,101574.75
2022-08-11T13:37:00.948Z,101564.81
2022-08-11T13:39:31.336Z,101561.00
2022-08-11T13:42:00.195Z,101565.84
2022-08-11T13:44:29.842Z,101567.25
2022-08-11T13:47:01.368Z,101568.97
2022-08-11T13:49:29.752Z,101562.81
2022-08-11T13:51:57.213Z,101568.25
2022-08-11T13:54:30.110Z,101555.50
2022-08-11T13:57:01.231Z,101557.28
2022-08-11T13:59:30.008Z,101562.41
2022-08-11T14:02:21.416Z,101556.41
2022-08-11T14:04:56.836Z,101548.28
2022-08-11T14:07:34.472Z,101545.88
2022-08-11T14:10:02.520Z,101541.78
2022-08-11T14:12:52.845Z,101541.88
2022-08-11T14:15:25.136Z,101538.25
2022-08-11T14:18:03.166Z,101537.53
2022-08-11T14:20:54.210Z,101530.34
2022-08-11T14:23:37.859Z,101526.25
2022-08-11T14:26:24.136Z,101533.38
2022-08-11T14:29:13.161Z,101530.13
2022-08-11T14:31:55.624Z,101529.22
2022-08-11T14:34:24.563Z,101526.22
2022-08-11T14:37:05.530Z,101519.88
2022-08-11T14:39:36.021Z,101521.78
2022-08-11T14:42:24.078Z,101520.09
2022-08-11T14:45:03.334Z,101518.44
2022-08-11T14:47:33.733Z,101521.16
2022-08-11T14:50:12.338Z,101520.94
2022-08-11T14:52:52.195Z,101514.88
2022-08-11T14:55:40.483Z,101506.28
2022-08-11T14:58:10.820Z,101507.00
2022-08-11T15:00:39.001Z,101500.44
2022-08-11T15:03:12.851Z,101504.53
2022-08-11T15:05:57.188Z,101498.75
2022-08-11T15:08:47.383Z,101496.03
2022-08-11T15:11:34.576Z,101500.25
2022-08-11T15:14:03.169Z,101493.47
2022-08-11T15:16:48.880Z,101492.75
2022-08-11T15:19:16.454Z,101492.19
2022-08-11T15:22:01.443Z,101491.50
2022-08-11T15:24:30.925Z,101492.06
2022-08-11T15:27:19.180Z,101481.81
2022-08-11T15:30:06.166Z,101478.28
2022-08-11T15:32:54.183Z,101463.19
2022-08-11T15:35:40.834Z,101468.97
2022-08-11T15:38:12.014Z,101458.16
2022-08-11T15:41:00.347Z,101467.47
2022-08-11T15:43:51.978Z,101460.38
2022-08-11T15:46:29.536Z,101465.03
2022-08-11T15:49:04.038Z,101464.72
2022-08-11T15:51:40.968Z,101455.75
2022-08-11T15:54:15.711Z,101452.31
2022-08-11T15:56:44.404Z,101453.50
2022-08-11T15:59:42.197Z,101457.81
2022-08-11T16:02:16.278Z,101461.34
2022-08-11T16:04:45.509Z,101454.91
2022-08-11T16:07:15.031Z,101459.31
2022-08-11T16:10:01.865Z,101463.34
2022-08-11T16:12:32.176Z,101453.28
2022-08-11T16:15:22.825Z,101452.72
2022-08-11T16:17:53.893Z,101451.09
2022-08-11T16:20:24.367Z,101445.38
2022-08-11T16:23:00.312Z,101445.91
2022-08-11T16:27:02.157Z,101444.66
2022-08-11T16:28:20.598Z,101446.31
2022-08-11T16:30:48.118Z,101438.25
2022-08-11T16:33:50.554Z,101439.53
2022-08-11T16:36:23.033Z,101440.00
2022-08-11T16:38:49.945Z,101444.38
2022-08-11T16:41:41.485Z,101443.22
2022-08-11T16:44:37.262Z,101439.75
2022-08-11T16:47:07.106Z,101434.09
2022-08-11T16:49:37.215Z,101436.63
2022-08-11T16:52:07.976Z,101433.16
2022-08-11T16:54:35.286Z,101434.41
2022-08-11T16:57:27.428Z,101430.03
2022-08-11T16:59:58.081Z,101426.34
2022-08-11T17:02:48.833Z,101422.16
2022-08-11T17:05:54.135Z,101431.91
2022-08-11T17:08:57.132Z,101427.38
2022-08-11T17:11:46.034Z,101423.88
2022-08-11T17:14:36.180Z,101416.22
2022-08-11T17:17:12.542Z,101417.59
2022-08-11T17:20:38.578Z,101428.13
2022-08-11T17:22:51.008Z,101421.41
2022-08-11T17:25:19.348Z,101416.56
2022-08-11T17:27:48.530Z,101413.75
2022-08-11T17:30:15.969Z,101415.94
2022-08-11T17:33:06.303Z,101411.34
2022-08-11T17:35:41.579Z,101412.69
2022-08-11T17:38:15.099Z,101408.09
2022-08-11T17:41:10.777Z,101409.69
2022-08-11T17:44:09.397Z,101404.75
2022-08-11T17:46:55.796Z,101412.09
2022-08-11T17:49:23.534Z,101417.88
2022-08-11T17:52:09.897Z,101416.13
2022-08-11T17:54:56.664Z,101421.38
2022-08-11T17:57:47.442Z,101421.13
2022-08-11T18:00:15.430Z,101410.00
2022-08-11T18:03:03.390Z,101420.72
2022-08-11T18:05:33.992Z,101420.53
2022-08-11T18:08:24.380Z,101409.16
2022-08-11T18:11:11.261Z,101412.81
2022-08-11T18:14:02.982Z,101410.78
2022-08-11T18:16:48.915Z,101419.63
2022-08-11T18:19:34.297Z,101418.38
2022-08-11T18:22:26.603Z,101417.91
2022-08-11T18:25:20.255Z,101424.44
2022-08-11T18:28:07.138Z,101421.88
2022-08-11T18:31:03.550Z,101418.47
2022-08-11T18:34:07.372Z,101429.44
2022-08-11T18:37:20.567Z,101434.66
2022-08-11T18:40:14.838Z,101425.84
2022-08-11T18:43:03.000Z,101430.53
2022-08-11T18:45:51.298Z,101435.44
2022-08-11T18:48:55.987Z,101424.78
2022-08-11T18:51:42.748Z,101433.38
2022-08-11T18:54:30.155Z,101427.13
2022-08-11T18:57:19.800Z,101434.41
2022-08-11T19:00:06.062Z,101438.78
2022-08-11T19:02:54.566Z,101440.00
2022-08-11T19:06:36.108Z,101446.72
2022-08-11T19:08:49.797Z,101450.06
2022-08-11T19:11:42.535Z,101447.41
2022-08-11T19:14:30.441Z,101455.63
2022-08-11T19:17:44.785Z,101462.06
2022-08-11T19:20:29.640Z,101458.88
2022-08-11T19:23:15.700Z,101461.66
2022-08-11T19:26:03.692Z,101472.19
2022-08-11T19:28:50.334Z,101462.97
2022-08-11T19:31:38.823Z,101471.72
2022-08-11T19:34:35.421Z,101468.78
2022-08-11T19:37:25.314Z,101469.19
2022-08-11T19:40:18.849Z,101476.63
2022-08-11T19:43:14.894Z,101475.50
2022-08-11T19:46:10.918Z,101475.88
2022-08-11T19:48:56.835Z,101480.16
2022-08-11T19:51:42.709Z,101483.44
2022-08-11T19:54:29.322Z,101482.09
2022-08-11T19:57:15.460Z,101490.31
2022-08-11T20:00:01.250Z,101489.94
2022-08-11T20:02:47.299Z,101480.78
2022-08-11T20:05:32.519Z,101473.72
2022-08-11T20:08:26.373Z,101482.88
2022-08-11T20:11:13.209Z,101476.63
2022-08-11T20:14:01.137Z,101473.22
2022-08-11T20:16:50.520Z,101482.19
2022-08-11T20:19:56.100Z,101481.81
2022-08-11T20:22:49.280Z,101491.56
2022-08-11T20:25:36.563Z,101484.22
2022-08-11T20:28:25.085Z,101484.50
2022-08-11T20:31:11.980Z,101490.69
2022-08-11T20:33:59.095Z,101497.09
2022-08-11T20:36:48.720Z,101487.19
2022-08-11T20:39:41.393Z,101494.84
2022-08-11T20:42:30.451Z,101488.19
2022-08-11T20:45:20.219Z,101486.81
2022-08-11T20:48:14.620Z,101490.88
2022-08-11T20:51:05.950Z,101492.81
2022-08-11T20:53:56.823Z,101494.00
2022-08-11T20:56:44.094Z,101495.97
2022-08-11T20:59:49.418Z,101496.94
2022-08-11T21:02:40.800Z,101495.75
2022-08-11T21:06:10.413Z,101501.81
2022-08-11T21:08:36.873Z,101500.13
2022-08-11T21:11:27.872Z,101500.81
2022-08-11T21:14:13.955Z,101507.63
2022-08-11T21:17:04.569Z,101505.97
2022-08-11T21:20:16.985Z,101496.88
2022-08-11T21:23:10.572Z,101497.25
2022-08-11T21:26:09.270Z,101495.88
2022-08-11T21:28:57.675Z,101495.56
2022-08-11T21:31:44.678Z,101508.19
2022-08-11T21:34:37.243Z,101510.44
2022-08-11T21:37:23.604Z,101498.16
2022-08-11T21:40:16.326Z,101505.75
2022-08-11T21:43:04.219Z,101507.22
2022-08-11T21:45:52.764Z,101501.13
2022-08-11T21:48:42.202Z,101503.53
2022-08-11T21:51:27.368Z,101501.97
2022-08-11T21:54:13.230Z,101501.38
2022-08-11T21:56:59.232Z,101499.19
2022-08-11T22:00:15.042Z,101506.31
2022-08-11T22:03:06.980Z,101500.03
2022-08-11T22:05:53.345Z,101502.28
2022-08-11T22:08:38.686Z,101507.50
2022-08-11T22:11:32.120Z,101500.16
2022-08-11T22:14:19.096Z,101499.69
2022-08-11T22:17:04.433Z,101501.31
2022-08-11T22:19:50.687Z,101498.34
2022-08-11T22:22:52.034Z,101497.88
2022-08-11T22:25:51.240Z,101494.31
2022-08-11T22:28:37.735Z,101489.75
2022-08-11T22:31:23.352Z,101498.13
2022-08-11T22:34:08.668Z,101490.28
2022-08-11T22:36:54.576Z,101482.13
2022-08-11T22:39:41.569Z,101495.66
2022-08-11T22:42:33.451Z,101498.31
2022-08-11T22:45:19.866Z,101495.34
2022-08-11T22:48:06.774Z,101493.31
2022-08-11T22:50:55.386Z,101496.00
2022-08-11T22:53:57.943Z,101496.78
2022-08-11T22:56:48.491Z,101493.03
2022-08-11T22:59:35.894Z,101501.69
2022-08-11T23:02:22.993Z,101491.78
2022-08-11T23:05:09.323Z,101496.50
2022-08-11T23:07:56.161Z,101501.53
2022-08-11T23:10:42.729Z,101496.94
2022-08-11T23:13:29.022Z,101488.78
2022-08-11T23:16:14.434Z,101480.91
2022-08-11T23:19:00.863Z,101491.44
2022-08-11T23:21:47.197Z,101495.34
2022-08-11T23:24:32.979Z,101495.66
2022-08-11T23:27:18.288Z,101496.28
2022-08-11T23:30:04.285Z,101485.13
2022-08-11T23:32:52.311Z,101486.06
2022-08-11T23:35:52.684Z,101491.41
2022-08-11T23:38:44.256Z,101492.47
2022-08-11T23:41:32.596Z,101490.28
2022-08-11T23:44:23.050Z,101486.47
2022-08-11T23:47:10.625Z,101485.50
2022-08-11T23:49:59.103Z,101485.69
2022-08-11T23:52:46.419Z,101483.59
2022-08-11T23:55:34.853Z,101482.00
2022-08-11T23:58:20.361Z,101477.75
